Time;durP1;ratioP1;P1;durP2;ratioP2;P2;SDS_P1;SDS_P2;PMS_P1;PMS_P2;Temp;Humidity;BMP_temperature;BMP_pressure;BME280_temperature;BME280_humidity;BME280_pressure;Samples;Min_cycle;Max_cycle;Signal;HPM_P1;HPM_P2
2022/06/02 00:02:08;;;;;;;;;;;13.60;99.90;;;13.95;78.32;101888.22;4842656;29;20008;-63
2022/06/02 00:04:42;;;;;;;;;;;13.60;99.90;;;13.85;78.80;101899.75;4842585;29;19924;-64
2022/06/02 00:07:13;;;;;;;;;;;13.60;99.90;;;13.93;79.13;101895.31;4842534;29;19928;-63
2022/06/02 00:09:53;;;;;;;;;;;13.60;99.90;;;13.84;78.91;101885.56;4842482;29;20016;-64
2022/06/02 00:12:26;;;;;;;;;;;13.60;99.90;;;13.83;78.71;101885.56;4842525;29;19956;-64
2022/06/02 00:15:04;;;;;;;;;;;13.60;99.90;;;13.84;78.48;101879.38;4841498;29;19929;-63
2022/06/02 00:17:39;;;;;;;;;;;13.60;99.90;;;13.69;78.28;101858.09;4842463;29;19929;-64
2022/06/02 00:20:14;;;;;;;;;;;13.60;99.90;;;13.81;78.41;101892.66;4842466;29;19924;-64
2022/06/02 00:22:49;;;;;;;;;;;13.50;99.90;;;13.83;78.82;101888.25;4842495;29;19967;-64
2022/06/02 00:25:26;;;;;;;;;;;13.50;99.90;;;13.87;79.25;101890.00;4842763;29;19980;-64
2022/06/02 00:28:01;;;;;;;;;;;13.60;99.90;;;13.90;79.76;101893.53;4842375;29;20045;-63
2022/06/02 00:30:38;;;;;;;;;;;13.50;99.90;;;13.95;79.74;101893.53;4842684;29;19924;-63
2022/06/02 00:33:21;;;;;;;;;;;13.60;99.90;;;13.79;79.63;101892.69;4842846;29;20375;-64
2022/06/02 00:35:53;;;;;;;;;;;13.50;99.90;;;13.75;78.86;101898.00;4842663;29;19924;-64
2022/06/02 00:38:25;;;;;;;;;;;13.50;99.90;;;13.62;78.29;101877.63;4842563;29;20332;-64
2022/06/02 00:40:53;;;;;;;;;;;13.50;99.90;;;13.58;77.92;101898.91;4826087;29;19924;-64
2022/06/02 00:43:45;;;;;;;;;;;13.30;99.90;;;13.39;77.73;101877.63;4842351;29;19928;-64
2022/06/02 00:46:19;;;;;;;;;;;13.30;99.90;;;13.34;78.00;101900.66;4841312;29;20235;-64
2022/06/02 00:48:56;;;;;;;;;;;13.20;99.90;;;13.23;78.32;101894.44;4842186;29;19924;-64
2022/06/02 00:51:31;;;;;;;;;;;13.00;99.90;;;13.18;78.82;101905.06;4842429;29;20370;-65
2022/06/02 00:59:53;;;;;;;;;;;12.90;99.90;;;13.14;78.70;101875.84;4845669;29;19924;-64
2022/06/02 01:02:23;;;;;;;;;;;13.00;99.90;;;13.36;78.97;101902.44;4845502;29;20008;-63
2022/06/02 01:04:52;;;;;;;;;;;13.00;99.90;;;13.33;78.85;101897.13;4844487;29;19930;-63
2022/06/02 01:07:26;;;;;;;;;;;13.10;99.90;;;13.32;78.69;101900.66;4845579;29;19925;-63
2022/06/02 01:10:07;;;;;;;;;;;13.10;99.90;;;13.41;78.79;101903.31;4845326;29;20018;-63
2022/06/02 01:12:56;;;;;;;;;;;13.10;99.90;;;13.34;79.23;101909.50;4845652;29;20345;-63
2022/06/02 01:15:35;;;;;;;;;;;13.10;99.90;;;13.31;79.45;101903.31;4843583;29;20385;-63
2022/06/02 01:18:13;;;;;;;;;;;13.00;99.90;;;13.16;78.62;101909.47;4845459;29;20033;-63
2022/06/02 01:20:49;;;;;;;;;;;13.00;99.90;;;12.97;78.30;101875.78;4845545;29;19934;-63
2022/06/02 01:23:43;;;;;;;;;;;12.90;99.90;;;13.17;78.58;101910.38;4845162;29;19924;-63
2022/06/02 01:26:27;;;;;;;;;;;12.90;99.90;;;13.16;78.54;101911.28;4843469;29;19924;-63
2022/06/02 01:29:01;;;;;;;;;;;12.90;99.90;;;13.23;79.41;101913.94;4845150;29;19928;-63
2022/06/02 01:31:42;;;;;;;;;;;12.90;99.90;;;13.17;79.67;101921.00;4845119;29;19924;-63
2022/06/02 01:34:22;;;;;;;;;;;12.80;99.90;;;13.17;80.21;101919.25;4845262;29;19959;-63
2022/06/02 01:36:57;;;;;;;;;;;12.90;99.90;;;13.16;80.20;101916.59;4845211;29;19981;-64
2022/06/02 01:39:35;;;;;;;;;;;12.90;99.90;;;13.05;80.28;101924.53;4845559;29;19953;-64
2022/06/02 01:42:10;;;;;;;;;;;12.80;99.90;;;13.07;80.08;101916.53;4844976;29;19935;-64
2022/06/02 01:44:52;;;;;;;;;;;12.80;99.90;;;12.98;79.44;101914.75;4845115;29;20023;-64
2022/06/02 01:47:28;;;;;;;;;;;12.70;99.90;;;12.98;79.63;101920.06;4845061;29;20379;-64
2022/06/02 01:50:13;;;;;;;;;;;12.70;99.90;;;12.62;79.62;101838.53;4844787;29;19928;-64
2022/06/02 01:52:47;;;;;;;;;;;12.80;99.90;;;13.16;79.65;101924.56;4844735;29;19924;-64
2022/06/02 01:55:26;;;;;;;;;;;12.80;99.90;;;13.19;79.88;101914.81;4844695;29;20303;-64
2022/06/02 01:58:02;;;;;;;;;;;12.90;99.90;;;13.26;80.22;101921.91;4844636;29;19936;-64
2022/06/02 02:00:32;;;;;;;;;;;12.90;99.90;;;13.13;79.94;101882.03;4840422;29;19978;-64
2022/06/02 02:03:10;;;;;;;;;;;13.00;99.90;;;13.18;79.76;101912.16;4826394;29;19972;-64
2022/06/02 02:05:57;;;;;;;;;;;12.90;99.90;;;13.13;79.45;101911.25;4825755;29;20432;-64
2022/06/02 02:08:39;;;;;;;;;;;12.90;99.90;;;13.14;79.02;101905.94;4826136;29;20418;-64
2022/06/02 02:11:19;;;;;;;;;;;12.90;99.90;;;13.12;78.76;101910.38;4826177;29;19975;-64
2022/06/02 02:13:57;;;;;;;;;;;12.90;99.90;;;13.10;79.30;101909.50;4826132;29;19932;-64
2022/06/02 02:16:30;;;;;;;;;;;12.90;99.90;;;13.18;79.10;101920.13;4826058;29;19925;-63
2022/06/02 02:19:08;;;;;;;;;;;12.90;99.90;;;13.07;78.81;101911.22;4826306;29;19925;-64
2022/06/02 02:21:43;;;;;;;;;;;12.80;99.90;;;13.10;78.38;101919.22;4826019;29;19975;-64
2022/06/02 02:24:24;;;;;;;;;;;12.80;99.90;;;13.00;78.35;101917.41;4840374;29;19971;-64
2022/06/02 02:26:57;;;;;;;;;;;12.80;99.90;;;12.84;78.26;101923.53;4826205;29;19982;-64
2022/06/02 02:29:33;;;;;;;;;;;12.60;99.90;;;12.73;77.96;101925.28;4826126;29;20440;-64
2022/06/02 02:32:06;;;;;;;;;;;12.50;99.90;;;12.72;78.65;101924.38;4826093;29;19925;-64
2022/06/02 02:34:50;;;;;;;;;;;12.50;99.90;;;12.72;79.04;101920.88;4825948;29;19977;-64
2022/06/02 02:37:23;;;;;;;;;;;12.40;99.90;;;12.63;79.38;101904.00;4825619;29;19925;-65
2022/06/02 02:39:55;;;;;;;;;;;12.50;99.90;;;12.48;79.49;101866.81;4826026;29;19925;-64
2022/06/02 02:42:28;;;;;;;;;;;12.50;99.90;;;12.56;79.59;101906.63;4825870;29;19929;-64
2022/06/02 02:45:09;;;;;;;;;;;12.50;99.90;;;12.58;79.21;101904.88;4825748;29;19974;-64
2022/06/02 02:47:43;;;;;;;;;;;12.50;99.90;;;12.65;79.05;101914.63;4825625;29;20023;-64
2022/06/02 02:50:18;;;;;;;;;;;12.40;99.90;;;12.66;78.88;101916.38;4825748;29;19960;-64
2022/06/02 02:52:56;;;;;;;;;;;12.50;99.90;;;12.67;78.69;101918.19;4825469;29;19924;-65
2022/06/02 02:55:28;;;;;;;;;;;12.50;99.90;;;12.69;78.91;101929.69;4824523;29;20304;-65
2022/06/02 02:58:03;;;;;;;;;;;12.40;99.90;;;12.75;79.23;101927.06;4839655;29;20398;-66
2022/06/02 03:00:36;;;;;;;;;;;12.40;99.90;;;12.68;79.45;101911.97;4840601;29;19989;-65
2022/06/02 03:03:09;;;;;;;;;;;12.50;99.90;;;12.32;79.69;101840.19;4843471;29;19973;-65
2022/06/02 03:05:51;;;;;;;;;;;12.50;99.90;;;12.43;80.09;101855.28;4843402;29;19925;-65
2022/06/02 03:08:24;;;;;;;;;;;12.60;99.90;;;12.92;80.44;101925.34;4843286;29;20035;-65
2022/06/02 03:10:58;;;;;;;;;;;12.60;99.90;;;12.90;80.22;101920.91;4843523;29;19940;-65
2022/06/02 03:13:34;;;;;;;;;;;12.60;99.90;;;12.57;79.72;101890.72;4843261;29;20347;-64
2022/06/02 03:16:07;;;;;;;;;;;12.50;99.90;;;10.27;78.78;101526.44;4842657;29;19924;-65
2022/06/02 03:18:44;;;;;;;;;;;12.40;99.90;;;12.51;78.63;101924.28;4843206;29;20015;-64
2022/06/02 03:21:18;;;;;;;;;;;12.30;99.90;;;12.53;78.59;101926.09;4843740;29;19931;-64
2022/06/02 03:24:19;;;;;;;;;;;12.30;99.90;;;12.52;77.60;101926.94;4843108;29;19947;-64
2022/06/02 03:26:57;;;;;;;;;;;12.30;99.90;;;12.48;77.21;101933.16;4843232;29;19925;-67
2022/06/02 03:29:34;;;;;;;;;;;12.30;99.90;;;12.28;77.54;101924.19;4842927;29;19924;-67
2022/06/02 03:32:10;;;;;;;;;;;12.10;99.90;;;12.31;78.15;101912.72;4827034;29;19980;-67
2022/06/02 03:34:46;;;;;;;;;;;12.10;99.90;;;12.42;78.84;101927.81;4842991;29;19924;-67
2022/06/02 03:37:28;;;;;;;;;;;12.10;99.90;;;12.37;79.08;101924.22;4842991;29;19928;-67
2022/06/02 03:40:09;;;;;;;;;;;12.10;99.90;;;12.20;78.84;101922.34;4843210;29;19931;-65
2022/06/02 03:42:44;;;;;;;;;;;12.10;99.90;;;12.30;78.81;101932.16;4843173;29;19931;-64
2022/06/02 03:45:23;;;;;;;;;;;12.00;99.90;;;12.42;79.60;101938.41;4826511;29;19986;-65
2022/06/02 03:48:10;;;;;;;;;;;12.10;99.90;;;12.40;79.97;101940.19;4842872;29;19931;-64
2022/06/02 03:51:05;;;;;;;;;;;12.10;99.90;;;12.38;80.08;101936.63;4842786;29;19925;-64
2022/06/02 03:53:57;;;;;;;;;;;12.10;99.90;;;12.49;79.29;101947.28;4841031;29;20000;-64
2022/06/02 03:56:33;;;;;;;;;;;12.20;99.90;;;12.33;78.97;101917.13;4842769;29;19948;-64
2022/06/02 03:59:21;;;;;;;;;;;12.30;99.90;;;12.32;79.17;101911.81;4842606;29;19981;-64
2022/06/02 04:01:55;;;;;;;;;;;12.30;99.90;;;12.61;79.55;101955.31;4842716;29;20011;-65
2022/06/02 04:04:34;;;;;;;;;;;12.30;99.90;;;12.65;79.69;101957.09;4842932;29;20018;-64
2022/06/02 04:07:12;;;;;;;;;;;12.30;99.90;;;12.65;79.93;101957.09;4842886;29;20023;-68
2022/06/02 04:09:49;;;;;;;;;;;12.40;99.90;;;12.64;80.23;101957.97;4841629;29;19924;-66
2022/06/02 04:15:57;;;;;;;;;;;12.40;99.90;;;12.68;81.20;101965.06;4835993;29;19924;-65
2022/06/02 04:18:32;;;;;;;;;;;12.30;99.90;;;12.71;82.42;101962.44;4842562;29;19996;-65
2022/06/02 04:21:11;;;;;;;;;;;12.40;99.90;;;12.82;82.31;101959.81;4843231;29;19928;-65
2022/06/02 04:24:10;;;;;;;;;;;12.50;99.90;;;12.62;81.98;101930.53;4842590;29;19925;-63
2022/06/02 04:26:53;;;;;;;;;;;12.50;99.90;;;12.85;81.87;101971.34;4842590;29;19925;-62
2022/06/02 04:29:30;;;;;;;;;;;12.50;99.90;;;12.76;82.15;101957.13;4846092;29;19977;-62
2022/06/02 04:32:08;;;;;;;;;;;12.60;99.90;;;12.89;81.83;101978.44;4846557;29;20327;-62
2022/06/02 04:34:42;;;;;;;;;;;12.60;99.90;;;12.94;81.34;101982.00;4846321;29;20302;-62
2022/06/02 04:37:16;;;;;;;;;;;12.70;99.90;;;12.88;80.65;101963.38;4846022;29;19977;-62
2022/06/02 04:39:50;;;;;;;;;;;12.70;99.90;;;12.97;80.47;101962.56;4845940;29;20295;-62
2022/06/02 04:42:27;;;;;;;;;;;12.80;99.90;;;13.17;80.27;101977.69;4846240;29;19956;-62
2022/06/02 04:45:02;;;;;;;;;;;12.90;99.90;;;13.23;80.11;101968.84;4844864;29;19932;-62
2022/06/02 04:47:41;;;;;;;;;;;13.00;99.90;;;13.32;79.93;101996.31;4846118;29;19932;-62
2022/06/02 04:50:14;;;;;;;;;;;13.00;99.90;;;13.42;80.81;101998.13;4844745;29;19924;-62
2022/06/02 04:52:49;;;;;;;;;;;13.10;99.90;;;13.18;80.58;101941.38;4846328;29;19924;-62
2022/06/02 04:55:22;;;;;;;;;;;13.20;99.90;;;13.57;80.51;101995.47;4845924;29;20427;-61
2022/06/02 04:57:58;;;;;;;;;;;13.30;99.90;;;13.69;80.62;101996.38;4845687;29;19928;-62
2022/06/02 05:00:30;;;;;;;;;;;13.40;99.90;;;13.68;79.13;101994.63;4845499;29;20336;-62
2022/06/02 05:03:12;;;;;;;;;;;13.40;99.90;;;13.70;78.91;101968.91;4845564;29;19972;-62
2022/06/02 05:05:45;;;;;;;;;;;13.60;99.90;;;14.00;78.18;102011.47;4845501;29;19930;-62
2022/06/02 05:08:44;;;;;;;;;;;13.70;99.90;;;14.14;78.62;102013.25;4845481;29;19924;-62
2022/06/02 05:11:21;;;;;;;;;;;13.80;99.90;;;14.29;78.88;101991.97;4843530;29;19928;-62
2022/06/02 05:13:56;;;;;;;;;;;14.10;99.90;;;14.59;78.60;102012.31;4845462;29;19939;-61
2022/06/02 05:16:28;;;;;;;;;;;14.30;99.90;;;14.69;78.64;102013.19;4845867;29;20087;-62
2022/06/02 05:19:18;;;;;;;;;;;14.40;99.90;;;14.90;78.98;102007.78;4845513;29;19957;-62
2022/06/02 05:22:03;;;;;;;;;;;14.60;99.90;;;14.93;78.50;102018.41;4844195;29;19925;-62
2022/06/02 05:24:48;;;;;;;;;;;14.70;99.90;;;15.03;78.44;102026.38;4845136;29;20391;-62
2022/06/02 05:27:36;;;;;;;;;;;14.70;99.90;;;15.09;78.10;102015.69;4845699;29;19959;-62
2022/06/02 05:30:36;;;;;;;;;;;14.90;99.90;;;15.16;77.78;102016.53;4844967;29;20014;-62
2022/06/02 05:33:25;;;;;;;;;;;15.00;99.90;;;15.33;77.69;102031.56;4840974;29;19928;-62
2022/06/02 05:36:29;;;;;;;;;;;15.10;99.90;;;15.15;77.04;101972.13;4843879;29;19932;-61
2022/06/02 05:39:05;;;;;;;;;;;15.20;99.90;;;15.04;78.22;101948.19;4842105;29;19963;-61
2022/06/02 05:41:53;;;;;;;;;;;15.30;99.90;;;15.66;78.77;102035.84;4844846;29;19925;-61
2022/06/02 05:44:30;;;;;;;;;;;15.30;99.90;;;15.72;78.51;102035.78;4844922;29;19980;-61
2022/06/02 05:47:12;;;;;;;;;;;15.50;99.90;;;15.81;78.68;102035.75;4844921;29;19930;-61
2022/06/02 05:49:46;;;;;;;;;;;15.50;99.90;;;15.79;78.20;102037.53;4844869;29;19929;-61
2022/06/02 05:52:22;;;;;;;;;;;15.50;99.90;;;15.72;78.36;102017.13;4844599;29;19951;-62
2022/06/02 05:55:10;;;;;;;;;;;15.60;99.90;;;15.78;78.18;102000.19;4844537;29;19925;-61
2022/06/02 05:57:44;;;;;;;;;;;15.70;99.90;;;16.15;77.52;102039.03;4844490;29;19971;-61
2022/06/02 06:00:22;;;;;;;;;;;15.90;99.90;;;16.24;76.34;102037.16;4844531;29;20014;-61
2022/06/02 06:03:18;;;;;;;;;;;16.00;99.90;;;16.46;75.40;102050.31;4844966;29;19925;-61
2022/06/02 06:05:47;;;;;;;;;;;16.20;99.90;;;16.61;75.19;102048.41;4843348;29;19932;-61
2022/06/02 06:08:22;;;;;;;;;;;16.40;99.90;;;16.66;73.22;102045.69;4844398;29;20319;-61
2022/06/02 06:10:56;;;;;;;;;;;16.40;99.90;;;16.69;72.60;102048.31;4827939;29;19928;-61
2022/06/02 06:13:41;;;;;;;;;;;16.50;99.90;;;16.56;72.20;102034.22;4828352;29;19977;-61
2022/06/02 06:16:14;;;;;;;;;;;16.50;99.90;;;16.40;72.45;102011.19;4844201;29;19952;-62
2022/06/02 06:18:52;;;;;;;;;;;16.40;99.90;;;16.59;73.02;102050.22;4844242;29;19931;-61
2022/06/02 06:21:30;;;;;;;;;;;16.40;99.90;;;16.50;73.23;102052.97;4843983;29;19972;-61
2022/06/02 06:24:18;;;;;;;;;;;16.30;99.90;;;16.65;72.90;102055.50;4843959;29;20430;-61
2022/06/02 06:26:52;;;;;;;;;;;16.30;99.90;;;16.79;72.29;102047.34;4844611;29;20023;-62
2022/06/02 06:29:37;;;;;;;;;;;16.50;99.90;;;16.78;72.55;102049.09;4844024;29;19982;-61
2022/06/02 06:32:20;;;;;;;;;;;16.50;99.90;;;16.76;72.76;102058.94;4843891;29;19960;-61
2022/06/02 06:34:59;;;;;;;;;;;16.50;99.90;;;16.65;72.94;102052.81;4844128;29;19996;-61
2022/06/02 06:37:46;;;;;;;;;;;16.30;99.90;;;16.54;72.42;102037.81;4843969;29;19931;-62
2022/06/02 06:40:24;;;;;;;;;;;16.20;99.90;;;16.60;72.41;102057.34;4844042;29;19981;-61
2022/06/02 06:42:59;;;;;;;;;;;16.30;99.90;;;16.61;73.45;102031.47;4843762;29;19924;-61
2022/06/02 06:45:31;;;;;;;;;;;16.40;99.90;;;16.85;70.97;102056.19;4843771;29;19976;-62
2022/06/02 06:48:02;;;;;;;;;;;16.60;99.90;;;16.97;70.41;102053.38;4843960;29;19924;-61
2022/06/02 06:50:37;;;;;;;;;;;16.70;99.90;;;17.17;69.50;102078.97;4843664;29;19952;-62
2022/06/02 06:53:24;;;;;;;;;;;16.90;99.90;;;17.08;68.89;102070.16;4844013;29;19932;-61
2022/06/02 06:56:02;;;;;;;;;;;16.90;99.90;;;17.15;69.56;102081.66;4843442;29;19924;-62
2022/06/02 06:58:42;;;;;;;;;;;16.90;99.90;;;17.12;69.44;102069.22;4843846;29;19932;-60
2022/06/02 07:01:15;;;;;;;;;;;16.90;99.90;;;17.42;69.20;102073.28;4843955;29;19924;-61
2022/06/02 07:03:52;;;;;;;;;;;17.10;99.90;;;17.57;68.50;102082.94;4842602;29;19925;-60
2022/06/02 07:06:31;;;;;;;;;;;17.30;99.90;;;17.62;67.17;102083.75;4843425;29;19924;-61
2022/06/02 07:09:03;;;;;;;;;;;17.50;99.90;;;17.52;66.30;102084.78;4842373;29;19957;-60
2022/06/02 07:14:30;;;;;;;;;;;16.80;99.90;;;16.99;63.36;102070.25;4843270;29;19925;-60
2022/06/02 07:17:00;;;;;;;;;;;16.90;99.90;;;17.32;63.40;102082.34;4843426;29;19967;-60
2022/06/02 07:19:36;;;;;;;;;;;17.00;99.90;;;17.25;63.03;102045.00;4842130;29;20388;-61
2022/06/02 07:22:12;;;;;;;;;;;17.30;99.90;;;17.81;61.01;102093.28;4843372;29;20359;-61
2022/06/02 07:24:53;;;;;;;;;;;17.60;99.90;;;17.04;59.93;101941.88;4827035;29;20347;-61
2022/06/02 07:27:28;;;;;;;;;;;17.70;99.90;;;18.03;60.52;102082.25;4843051;29;19925;-61
2022/06/02 07:30:20;;;;;;;;;;;17.90;99.90;;;18.08;59.51;102100.91;4842939;29;20502;-63
2022/06/02 07:33:10;;;;;;;;;;;18.00;99.90;;;18.40;59.38;102109.34;4843046;29;19930;-64
2022/06/02 07:36:10;;;;;;;;;;;18.20;99.90;;;18.29;58.37;102100.56;4843164;29;20340;-66
2022/06/02 07:38:52;;;;;;;;;;;18.30;99.90;;;18.44;57.55;102121.81;4843241;29;20358;-67
2022/06/02 07:41:33;;;;;;;;;;;18.30;99.90;;;18.51;55.75;102122.56;4843180;29;19973;-64
2022/06/02 07:44:24;;;;;;;;;;;18.40;99.90;;;16.89;59.12;102130.09;4843142;29;20023;-62
2022/06/02 07:47:07;;;;;;;;;;;17.10;99.90;;;17.02;60.73;102129.06;4843143;29;20027;-63
2022/06/02 07:49:50;;;;;;;;;;;16.80;99.90;;;17.21;61.61;102115.50;4842882;29;19981;-62
2022/06/02 07:52:25;;;;;;;;;;;16.80;99.90;;;16.99;60.37;102080.09;4842961;29;20032;-63
2022/06/02 07:55:01;;;;;;;;;;;16.90;99.90;;;17.23;63.53;102119.88;4843370;29;19924;-62
2022/06/02 07:57:38;;;;;;;;;;;16.90;99.90;;;17.05;63.75;102114.78;4842946;29;19925;-63
2022/06/02 08:00:15;;;;;;;;;;;16.80;99.90;;;17.19;61.69;102133.34;4842918;29;19974;-63
2022/06/02 08:03:15;;;;;;;;;;;16.80;99.90;;;17.50;61.35;102140.13;4846561;29;20027;-63
2022/06/02 08:05:51;;;;;;;;;;;17.00;99.90;;;17.49;58.01;102127.66;4848958;29;19924;-62
2022/06/02 08:08:29;;;;;;;;;;;17.10;99.90;;;17.59;57.52;102122.16;4849260;29;19924;-62
2022/06/02 08:11:11;;;;;;;;;;;17.30;99.90;;;17.62;57.54;102123.91;4848699;29;19959;-62
2022/06/02 08:13:42;;;;;;;;;;;17.30;99.90;;;17.48;58.62;102120.50;4848854;29;19976;-62
2022/06/02 08:16:14;;;;;;;;;;;17.20;99.90;;;17.35;60.32;102129.56;4849307;29;20301;-62
2022/06/02 08:19:02;;;;;;;;;;;17.10;99.90;;;17.47;59.60;102129.41;4849020;29;19924;-62
2022/06/02 08:21:34;;;;;;;;;;;17.10;99.90;;;17.04;59.59;102056.84;4848624;29;19972;-62
2022/06/02 08:24:35;;;;;;;;;;;17.10;99.90;;;17.91;59.67;102130.63;4848645;29;20272;-63
2022/06/02 08:27:24;;;;;;;;;;;17.50;99.90;;;17.92;57.72;102131.53;4848889;29;20284;-62
2022/06/02 08:30:05;;;;;;;;;;;17.70;99.90;;;18.03;58.46;102129.56;4848592;29;20368;-62
2022/06/02 08:33:12;;;;;;;;;;;17.70;99.90;;;17.62;57.15;102131.91;4848525;29;20387;-62
2022/06/02 08:35:44;;;;;;;;;;;17.70;99.90;;;17.47;57.90;102135.66;4848817;29;19931;-62
2022/06/02 08:38:30;;;;;;;;;;;17.10;99.90;;;17.79;56.99;102125.44;4848478;29;19924;-62
2022/06/02 08:44:15;;;;;;;;;;;17.90;99.90;;;18.57;55.04;102136.75;4847671;29;19924;-62
2022/06/02 08:47:16;;;;;;;;;;;18.30;99.90;;;17.98;56.67;102092.13;4848657;29;19989;-62
2022/06/02 08:50:11;;;;;;;;;;;18.20;99.90;;;17.29;55.82;102126.94;4818496;29;19957;-62
2022/06/02 08:53:19;;;;;;;;;;;17.20;99.90;;;17.68;56.90;102132.75;4848274;29;19974;-62
2022/06/02 08:56:07;;;;;;;;;;;17.20;99.90;;;18.24;55.86;102112.28;4848114;29;19924;-62
2022/06/02 08:58:52;;;;;;;;;;;17.80;99.90;;;18.68;54.49;102147.28;4848532;29;20358;-62
2022/06/02 09:01:37;;;;;;;;;;;18.30;99.90;;;18.62;53.76;102139.38;4832036;29;20275;-62
2022/06/02 09:04:37;;;;;;;;;;;18.40;99.90;;;18.93;53.56;102152.19;4848584;29;19931;-62
2022/06/02 09:07:17;;;;;;;;;;;18.60;99.90;;;18.91;52.52;102126.34;4848319;29;20336;-62
2022/06/02 09:10:37;;;;;;;;;;;18.90;99.90;;;19.16;52.89;102132.09;4848323;29;20357;-62
2022/06/02 09:13:22;;;;;;;;;;;19.00;99.90;;;19.56;53.60;102133.09;4847398;29;20283;-62
2022/06/02 09:16:13;;;;;;;;;;;19.40;99.90;;;19.10;52.55;102046.38;4845381;29;19931;-62
2022/06/02 09:19:11;;;;;;;;;;;19.50;99.90;;;19.80;52.24;102135.28;4845341;29;19924;-62
2022/06/02 09:21:56;;;;;;;;;;;19.70;99.90;;;18.93;53.06;102144.16;4845417;29;19924;-62
2022/06/02 09:24:28;;;;;;;;;;;19.00;99.90;;;18.41;51.64;102151.28;4845481;29;19925;-62
2022/06/02 09:27:17;;;;;;;;;;;18.30;99.90;;;18.61;52.22;102146.53;4845413;29;20346;-62
2022/06/02 09:29:50;;;;;;;;;;;18.20;99.90;;;19.01;50.43;102132.41;4845144;29;20319;-62
2022/06/02 09:32:30;;;;;;;;;;;18.70;99.90;;;19.18;51.14;102130.28;4844967;29;19928;-62
2022/06/02 09:35:17;;;;;;;;;;;19.00;99.90;;;18.51;51.20;102160.09;4845354;29;19925;-62
2022/06/02 09:38:15;;;;;;;;;;;18.30;99.90;;;18.75;50.27;102128.41;4845550;29;19954;-62
2022/06/02 09:40:48;;;;;;;;;;;18.50;99.90;;;17.95;51.54;102151.09;4828453;29;19924;-62
2022/06/02 09:43:42;;;;;;;;;;;18.00;99.90;;;18.03;52.55;102137.59;4844956;29;19924;-62
2022/06/02 09:46:24;;;;;;;;;;;17.90;99.90;;;17.74;55.03;102118.38;4843874;29;20011;-62
2022/06/02 09:49:33;;;;;;;;;;;17.50;99.90;;;17.95;53.46;102142.16;4844714;29;19924;-62
2022/06/02 09:52:05;;;;;;;;;;;17.50;99.90;;;18.09;52.38;102121.44;4844461;29;20309;-62
2022/06/02 09:55:04;;;;;;;;;;;17.90;99.90;;;17.98;54.07;102134.13;4844942;29;19981;-62
2022/06/02 09:57:57;;;;;;;;;;;17.60;99.90;;;18.29;52.93;102139.88;4844505;29;19924;-62
2022/06/02 10:00:36;;;;;;;;;;;17.90;99.90;;;18.49;52.77;102141.34;4844769;29;20317;-62
2022/06/02 10:03:17;;;;;;;;;;;18.10;99.90;;;18.69;54.33;102125.84;4845103;29;19928;-62
2022/06/02 10:05:54;;;;;;;;;;;18.50;99.90;;;18.98;52.54;102132.44;4844647;29;20287;-62
2022/06/02 10:08:34;;;;;;;;;;;18.70;99.90;;;18.62;51.45;102124.16;4844447;29;20459;-62
2022/06/02 10:11:11;;;;;;;;;;;18.60;99.90;;;18.65;52.99;102128.59;4844386;29;19924;-62
2022/06/02 10:14:18;;;;;;;;;;;18.40;99.90;;;18.73;52.29;102098.06;4844485;29;19980;-62
2022/06/02 10:17:13;;;;;;;;;;;18.60;99.90;;;19.51;51.59;102127.81;4843039;29;20371;-62
2022/06/02 10:19:55;;;;;;;;;;;19.10;99.90;;;19.93;50.62;102125.13;4835335;29;19924;-62
2022/06/02 10:22:31;;;;;;;;;;;19.60;99.90;;;19.95;50.21;102083.88;4844367;29;19952;-62
2022/06/02 10:25:23;;;;;;;;;;;19.90;99.90;;;20.39;49.82;102123.13;4844372;29;19928;-62
2022/06/02 10:28:34;;;;;;;;;;;20.20;99.90;;;20.63;47.73;102126.06;4825857;29;20000;-62
2022/06/02 10:31:31;;;;;;;;;;;20.40;99.90;;;20.59;46.34;102126.22;4792377;29;19952;-62
2022/06/02 10:34:38;;;;;;;;;;;20.40;99.90;;;20.75;44.72;102124.00;4843903;29;19975;-62
2022/06/02 10:37:24;;;;;;;;;;;20.60;99.90;;;20.64;45.41;102075.88;4834573;29;19932;-62
2022/06/02 10:40:18;;;;;;;;;;;20.70;99.90;;;20.82;45.19;102101.41;4843901;29;20406;-62
2022/06/02 10:43:04;;;;;;;;;;;20.70;99.90;;;21.13;45.52;102114.00;4842253;29;19924;-62
2022/06/02 10:46:07;;;;;;;;;;;20.90;99.90;;;21.13;44.39;102114.00;4844084;29;19932;-62
2022/06/02 10:48:53;;;;;;;;;;;20.90;99.90;;;21.20;44.24;102101.25;4816021;29;19964;-62
2022/06/02 10:51:52;;;;;;;;;;;21.10;99.90;;;21.25;43.53;102094.81;4843577;29;19925;-63
2022/06/02 10:54:38;;;;;;;;;;;21.10;99.90;;;21.49;43.82;102095.91;4841895;29;19961;-62
2022/06/02 10:57:40;;;;;;;;;;;21.30;99.90;;;21.76;44.92;102103.13;4842630;29;19925;-63
2022/06/02 11:00:24;;;;;;;;;;;21.50;99.90;;;22.03;43.62;102106.81;4844032;29;19924;-63
2022/06/02 11:03:43;;;;;;;;;;;21.80;99.90;;;21.65;42.84;102115.19;4842792;29;19924;-63
2022/06/02 11:07:07;;;;;;;;;;;21.70;99.90;;;21.06;44.35;102107.00;4843643;29;20354;-62
2022/06/02 11:09:58;;;;;;;;;;;21.10;99.90;;;21.09;43.13;102106.94;4786872;30;19961;-62
2022/06/02 11:12:49;;;;;;;;;;;20.90;99.90;;;21.47;45.12;102086.97;4839579;29;20014;-62
2022/06/02 11:15:38;;;;;;;;;;;21.10;99.90;;;21.52;45.30;102094.00;4843241;29;19949;-62
2022/06/02 11:18:51;;;;;;;;;;;21.40;99.90;;;21.81;43.55;102109.31;4843273;29;20045;-63
2022/06/02 11:22:05;;;;;;;;;;;21.50;99.90;;;21.97;44.43;102096.25;4827179;29;19951;-62
2022/06/02 11:25:06;;;;;;;;;;;21.70;99.90;;;22.15;43.60;102095.66;4811396;29;19924;-63
2022/06/02 11:27:47;;;;;;;;;;;22.10;99.90;;;22.12;44.36;102063.41;4842906;29;20390;-63
2022/06/02 11:30:38;;;;;;;;;;;22.20;99.90;;;21.08;43.21;102099.78;4826990;29;20011;-62
2022/06/02 11:33:37;;;;;;;;;;;21.30;99.90;;;20.51;45.36;102099.53;4843257;29;20015;-62
2022/06/02 11:36:27;;;;;;;;;;;20.20;99.90;;;20.65;46.62;102099.16;4843016;29;19932;-62
2022/06/02 11:39:27;;;;;;;;;;;20.30;99.90;;;21.14;46.22;102101.41;4843192;29;19928;-62
2022/06/02 11:42:03;;;;;;;;;;;20.60;99.90;;;21.40;46.00;102086.31;4842874;29;19973;-62
2022/06/02 11:44:37;;;;;;;;;;;21.00;99.90;;;21.58;46.08;102095.66;4826826;29;19924;-63
2022/06/02 11:47:38;;;;;;;;;;;21.30;99.90;;;21.86;44.81;102096.56;4843064;29;20279;-63
2022/06/02 11:50:22;;;;;;;;;;;21.60;99.90;;;21.69;43.93;102090.81;4831424;29;20283;-63
2022/06/02 11:53:19;;;;;;;;;;;21.50;99.90;;;21.74;42.35;102075.38;4843005;29;19940;-62
2022/06/02 11:55:54;;;;;;;;;;;21.70;99.90;;;21.69;42.42;102068.38;4843025;29;19980;-61
2022/06/02 11:59:12;;;;;;;;;;;21.70;99.90;;;21.79;43.89;102078.81;4841782;29;19949;-61
2022/06/02 12:02:10;;;;;;;;;;;21.70;99.90;;;21.23;43.04;102077.84;4842770;29;20042;-61
2022/06/02 12:05:17;;;;;;;;;;;21.10;99.90;;;20.95;43.21;102065.16;4826267;29;19999;-61
2022/06/02 12:08:20;;;;;;;;;;;20.90;99.90;;;19.80;45.06;102017.09;4842920;29;20286;-61
2022/06/02 12:11:26;;;;;;;;;;;19.90;99.90;;;20.42;46.25;102070.16;4842497;29;20417;-61
2022/06/02 12:14:20;;;;;;;;;;;19.90;99.90;;;20.64;45.59;102070.50;4842615;29;19936;-61
2022/06/02 12:17:06;;;;;;;;;;;20.20;99.90;;;20.24;46.38;102076.03;4840930;29;19924;-61
2022/06/02 12:20:01;;;;;;;;;;;20.10;99.90;;;19.36;48.90;102060.16;4842028;29;20268;-61
2022/06/02 12:22:50;;;;;;;;;;;19.40;99.90;;;19.04;48.67;102070.66;4840971;29;20340;-61
2022/06/02 12:26:00;;;;;;;;;;;18.80;99.90;;;19.25;45.88;102029.97;4842831;29;20034;-61
2022/06/02 12:28:42;;;;;;;;;;;19.10;99.90;;;19.83;45.91;102040.28;4798622;29;19924;-61
2022/06/02 12:31:42;;;;;;;;;;;19.40;99.90;;;20.35;46.27;102063.19;4842694;29;19996;-61
2022/06/02 12:34:25;;;;;;;;;;;19.90;99.90;;;20.11;46.49;102058.38;4835007;29;20275;-61
2022/06/02 12:37:17;;;;;;;;;;;19.90;99.90;;;19.94;44.91;102055.22;4843085;29;19977;-61